Time;durP1;ratioP1;P1;durP2;ratioP2;P2;SDS_P1;SDS_P2;PMS_P1;PMS_P2;Temp;Humidity;BMP_temperature;BMP_pressure;BME280_temperature;BME280_humidity;BME280_pressure;Samples;Min_cycle;Max_cycle;Signal;HPM_P1;HPM_P2
2022/07/06 00:00:22;;;;;;;2.67;2.50;;;19.20;33.10;;;;;;4862170;29;20433;-73
2022/07/06 00:02:50;;;;;;;2.93;2.57;;;19.20;33.40;;;;;;4866752;29;20529;-73
2022/07/06 00:05:17;;;;;;;2.80;2.40;;;19.10;33.60;;;;;;4864150;29;20494;-73
2022/07/06 00:07:43;;;;;;;3.40;2.43;;;19.10;33.90;;;;;;4863964;29;20497;-73
2022/07/06 00:10:11;;;;;;;2.53;2.43;;;19.00;34.20;;;;;;4863956;29;20470;-72
2022/07/06 00:12:38;;;;;;;4.80;2.33;;;19.00;34.10;;;;;;4863282;29;20429;-73
2022/07/06 00:15:06;;;;;;;7.00;3.03;;;18.90;34.60;;;;;;4864136;29;20517;-73
2022/07/06 00:17:33;;;;;;;2.67;2.47;;;18.80;34.80;;;;;;4864010;29;20484;-72
2022/07/06 00:20:00;;;;;;;2.37;2.17;;;18.80;35.00;;;;;;4871067;29;20517;-71
2022/07/06 00:22:26;;;;;;;2.73;2.53;;;18.70;35.20;;;;;;4872823;29;20436;-72
2022/07/06 00:24:53;;;;;;;3.43;3.07;;;18.70;35.40;;;;;;4863486;29;20484;-71
2022/07/06 00:27:21;;;;;;;5.00;3.20;;;18.60;35.70;;;;;;4864140;29;20462;-72
2022/07/06 00:29:48;;;;;;;3.30;2.63;;;18.60;36.10;;;;;;4851318;29;20438;-73
2022/07/06 00:32:15;;;;;;;4.37;2.90;;;18.50;36.30;;;;;;4845378;29;20561;-73
2022/07/06 00:34:42;;;;;;;4.63;3.43;;;18.50;36.80;;;;;;4845254;29;20479;-72
2022/07/06 00:37:09;;;;;;;3.13;2.83;;;18.50;36.90;;;;;;4853095;29;20491;-72
2022/07/06 00:39:36;;;;;;;3.50;3.17;;;18.40;37.30;;;;;;4862752;29;20476;-73
2022/07/06 00:42:03;;;;;;;3.30;3.00;;;18.40;37.30;;;;;;4864790;29;20581;-73
2022/07/06 00:44:33;;;;;;;3.43;2.90;;;18.40;37.30;;;;;;4883486;29;20528;-72
2022/07/06 00:47:00;;;;;;;7.27;3.33;;;18.40;37.30;;;;;;4884120;29;20492;-71
2022/07/06 00:52:12;;;;;;;5.63;3.30;;;18.30;37.20;;;;;;4877060;29;20478;-72
2022/07/06 00:54:42;;;;;;;3.67;3.37;;;18.30;37.20;;;;;;4875414;29;20475;-72
2022/07/06 00:57:09;;;;;;;8.20;3.50;;;18.30;37.20;;;;;;4857161;29;20544;-72
2022/07/06 00:59:37;;;;;;;8.80;4.03;;;18.30;37.20;;;;;;4850290;29;20505;-73
2022/07/06 01:02:04;;;;;;;4.37;3.97;;;18.30;37.30;;;;;;4851932;29;20474;-73
2022/07/06 01:04:31;;;;;;;4.83;4.27;;;18.30;37.70;;;;;;4850983;29;20832;-73
2022/07/06 01:06:58;;;;;;;5.00;3.63;;;18.40;37.30;;;;;;4844574;29;20426;-73
2022/07/06 01:09:25;;;;;;;4.33;4.03;;;18.30;37.30;;;;;;4844118;29;20858;-73
2022/07/06 01:11:53;;;;;;;4.77;4.00;;;18.40;37.90;;;;;;4846003;29;20459;-72
2022/07/06 01:14:21;;;;;;;8.27;4.10;;;18.40;38.10;;;;;;4844139;29;20429;-73
2022/07/06 01:16:49;;;;;;;5.43;3.40;;;18.30;38.40;;;;;;4852574;29;20632;-72
2022/07/06 01:19:16;;;;;;;5.47;4.70;;;18.30;38.80;;;;;;4844400;29;20458;-73
2022/07/06 01:21:44;;;;;;;4.57;4.17;;;18.20;39.10;;;;;;4843732;29;20472;-72
2022/07/06 01:24:11;;;;;;;4.93;4.40;;;18.20;39.40;;;;;;4844451;29;20473;-73
2022/07/06 01:26:38;;;;;;;4.80;3.63;;;18.20;39.70;;;;;;4844528;29;20477;-72
2022/07/06 01:29:05;;;;;;;6.60;4.83;;;18.10;39.70;;;;;;4844741;29;20448;-71
2022/07/06 01:31:32;;;;;;;4.47;4.17;;;18.20;40.00;;;;;;4851298;29;20623;-72
2022/07/06 01:33:59;;;;;;;7.13;4.47;;;18.20;40.20;;;;;;4862750;29;20462;-73
2022/07/06 01:36:26;;;;;;;5.50;5.00;;;18.10;40.50;;;;;;4862637;29;20521;-73
2022/07/06 01:38:57;;;;;;;5.20;4.70;;;18.00;40.80;;;;;;4862078;29;20436;-72
2022/07/06 01:41:24;;;;;;;4.83;4.50;;;18.00;41.30;;;;;;4864454;29;20441;-73
2022/07/06 01:43:51;;;;;;;9.10;4.30;;;17.90;41.70;;;;;;4864938;29;20465;-73
2022/07/06 01:46:19;;;;;;;5.27;4.40;;;17.90;42.30;;;;;;4862325;29;20449;-72
2022/07/06 01:48:46;;;;;;;6.60;3.90;;;17.80;42.60;;;;;;4854592;29;20791;-72
2022/07/06 01:51:12;;;;;;;6.53;4.43;;;17.80;43.00;;;;;;4862903;29;20866;-72
2022/07/06 01:53:39;;;;;;;4.27;3.97;;;17.70;43.10;;;;;;4862213;29;20443;-73
2022/07/06 01:56:08;;;;;;;4.43;4.03;;;17.70;43.50;;;;;;4850901;29;20884;-72
2022/07/06 01:58:35;;;;;;;5.70;4.90;;;17.60;44.60;;;;;;4844351;29;20441;-72
2022/07/06 02:01:08;;;;;;;5.00;4.30;;;17.50;44.40;;;;;;4844294;29;20452;-71
2022/07/06 02:03:35;;;;;;;5.17;4.67;;;17.50;44.60;;;;;;4844096;29;20466;-73
2022/07/06 02:06:02;;;;;;;6.33;4.30;;;17.50;45.00;;;;;;4848695;29;20506;-72
2022/07/06 02:08:29;;;;;;;8.23;4.40;;;17.50;45.40;;;;;;4861316;29;20504;-72
2022/07/06 02:10:56;;;;;;;4.97;4.47;;;17.40;45.80;;;;;;4869752;29;20451;-72
2022/07/06 02:13:24;;;;;;;7.00;4.43;;;17.30;46.30;;;;;;4867371;29;20466;-73
2022/07/06 02:15:51;;;;;;;6.90;4.60;;;17.20;46.20;;;;;;4862603;29;20456;-71
2022/07/06 02:18:17;;;;;;;4.97;4.00;;;17.20;46.20;;;;;;4862255;29;20467;-72
2022/07/06 02:20:44;;;;;;;7.40;4.50;;;17.10;46.10;;;;;;4861744;29;20733;-72
2022/07/06 02:23:11;;;;;;;5.93;4.70;;;17.00;47.20;;;;;;4862453;29;20988;-72
2022/07/06 02:25:38;;;;;;;5.30;4.87;;;17.00;47.40;;;;;;4864294;29;20483;-72
2022/07/06 02:28:05;;;;;;;6.10;4.73;;;17.00;47.80;;;;;;4865181;29;20466;-72
2022/07/06 02:30:33;;;;;;;6.20;5.60;;;16.90;47.80;;;;;;4865323;29;20439;-73
2022/07/06 02:33:00;;;;;;;5.20;4.77;;;16.80;49.20;;;;;;4865099;29;20440;-72
2022/07/06 02:35:27;;;;;;;6.03;5.10;;;16.80;48.50;;;;;;4864684;29;20477;-72
2022/07/06 02:37:54;;;;;;;7.07;5.40;;;16.80;48.80;;;;;;4863830;29;20431;-73
2022/07/06 02:40:21;;;;;;;7.63;5.70;;;16.80;49.00;;;;;;4863994;29;20462;-72
2022/07/06 02:42:47;;;;;;;6.47;4.83;;;16.80;48.90;;;;;;4863153;29;20449;-73
2022/07/06 02:45:14;;;;;;;5.50;5.10;;;16.80;48.90;;;;;;4849163;29;20475;-73
2022/07/06 02:47:42;;;;;;;5.17;4.73;;;16.90;48.90;;;;;;4847401;29;20471;-71
2022/07/06 02:50:09;;;;;;;5.40;4.90;;;16.90;48.80;;;;;;4847108;29;20471;-72
2022/07/06 02:52:36;;;;;;;5.13;4.63;;;16.90;49.10;;;;;;4847960;29;20462;-73
2022/07/06 02:55:03;;;;;;;5.70;5.30;;;16.90;49.00;;;;;;4850989;29;20813;-72
2022/07/06 02:57:30;;;;;;;4.97;4.57;;;16.90;48.80;;;;;;4847907;29;20427;-72
2022/07/06 02:59:57;;;;;;;5.13;4.67;;;16.90;48.20;;;;;;4847849;29;20448;-73
2022/07/06 03:02:24;;;;;;;5.30;4.80;;;16.90;48.50;;;;;;4846964;29;20542;-73
2022/07/06 03:04:52;;;;;;;5.10;4.60;;;16.90;49.10;;;;;;4845745;29;20473;-73
2022/07/06 03:07:19;;;;;;;5.43;4.93;;;16.80;49.30;;;;;;4845109;29;20437;-72
2022/07/06 03:09:46;;;;;;;4.43;4.03;;;16.80;49.60;;;;;;4860336;29;20470;-72
2022/07/06 03:12:13;;;;;;;4.43;4.03;;;16.80;49.80;;;;;;4862563;29;20504;-72
2022/07/06 03:14:40;;;;;;;4.17;3.87;;;16.80;50.20;;;;;;4854721;29;20457;-72
2022/07/06 03:17:06;;;;;;;4.90;4.47;;;16.80;50.20;;;;;;4844065;29;20443;-73
2022/07/06 03:19:33;;;;;;;4.70;4.20;;;16.80;50.40;;;;;;4844549;29;20473;-73
2022/07/06 03:22:02;;;;;;;5.23;4.40;;;16.70;50.70;;;;;;4844877;29;20444;-71
2022/07/06 03:24:28;;;;;;;5.13;4.10;;;16.80;50.70;;;;;;4844188;29;20806;-73
2022/07/06 03:26:55;;;;;;;4.57;3.90;;;16.80;50.70;;;;;;4853298;29;20433;-75
2022/07/06 03:29:22;;;;;;;4.10;3.80;;;16.80;50.60;;;;;;4865047;29;20963;-72
2022/07/06 03:31:49;;;;;;;4.93;4.43;;;16.80;49.70;;;;;;4873281;29;20462;-72
2022/07/06 03:34:15;;;;;;;4.40;4.03;;;16.80;49.60;;;;;;4875219;29;20425;-72
2022/07/06 03:36:42;;;;;;;5.30;4.80;;;16.70;49.80;;;;;;4880315;29;20452;-72
2022/07/06 03:39:10;;;;;;;5.93;4.07;;;16.70;50.00;;;;;;4876844;29;20435;-72
2022/07/06 03:41:37;;;;;;;8.00;4.67;;;16.60;50.60;;;;;;4874669;29;20808;-71
2022/07/06 03:44:04;;;;;;;4.77;4.37;;;16.60;50.60;;;;;;4863665;29;20801;-73
2022/07/06 03:46:31;;;;;;;5.40;4.40;;;16.60;50.40;;;;;;4861769;29;20483;-72
2022/07/06 03:48:58;;;;;;;7.93;4.50;;;16.60;50.60;;;;;;4862132;29;20468;-73
2022/07/06 03:51:25;;;;;;;4.00;3.70;;;16.60;50.70;;;;;;4861479;29;20478;-72
2022/07/06 03:53:52;;;;;;;4.93;4.50;;;16.60;50.70;;;;;;4862046;29;20514;-73
2022/07/06 03:56:28;;;;;;;4.30;3.90;;;16.60;50.70;;;;;;4862272;29;20459;-72
2022/07/06 03:58:56;;;;;;;6.00;3.70;;;16.60;50.80;;;;;;4863949;29;20466;-72
2022/07/06 04:01:23;;;;;;;3.67;3.33;;;16.60;50.60;;;;;;4863477;29;20460;-74
2022/07/06 04:03:50;;;;;;;4.70;4.17;;;16.50;50.20;;;;;;4854792;29;20461;-73
2022/07/06 04:06:16;;;;;;;3.40;3.20;;;16.60;50.30;;;;;;4851182;29;20505;-72
2022/07/06 04:08:43;;;;;;;4.23;3.83;;;16.60;50.00;;;;;;4853087;29;20882;-73
2022/07/06 04:11:10;;;;;;;3.50;3.17;;;16.70;49.70;;;;;;4849423;29;20426;-73
2022/07/06 04:13:39;;;;;;;5.03;3.70;;;16.70;49.40;;;;;;4845471;29;21162;-73
2022/07/06 04:16:06;;;;;;;5.30;4.70;;;16.80;49.00;;;;;;4845826;29;20548;-73
2022/07/06 04:18:33;;;;;;;3.70;3.27;;;16.70;48.80;;;;;;4845344;29;20433;-73
2022/07/06 04:21:00;;;;;;;4.30;3.50;;;16.70;48.60;;;;;;4845623;29;20468;-73
2022/07/06 04:23:26;;;;;;;4.20;3.20;;;16.70;48.30;;;;;;4864325;29;20534;-72
2022/07/06 04:25:53;;;;;;;3.57;3.27;;;16.80;48.20;;;;;;4865807;29;20522;-73
2022/07/06 04:28:20;;;;;;;3.60;3.20;;;16.80;48.00;;;;;;4865989;29;20436;-73
2022/07/06 04:30:48;;;;;;;3.73;3.43;;;16.80;47.60;;;;;;4866208;29;20454;-77
2022/07/06 04:33:15;;;;;;;3.63;2.93;;;16.80;47.60;;;;;;4865584;29;20451;-76
2022/07/06 04:35:42;;;;;;;4.87;3.10;;;16.80;47.70;;;;;;4866410;29;20509;-76
2022/07/06 04:38:09;;;;;;;3.23;2.93;;;16.80;47.50;;;;;;4864483;29;20429;-76
2022/07/06 04:40:35;;;;;;;4.63;2.70;;;16.80;47.30;;;;;;4860178;29;20573;-79
2022/07/06 04:43:02;;;;;;;3.27;3.00;;;16.90;47.20;;;;;;4849497;29;20421;-77
2022/07/06 04:45:29;;;;;;;5.20;3.17;;;16.90;47.10;;;;;;4844739;29;20504;-77
2022/07/06 04:47:58;;;;;;;4.17;3.27;;;16.90;46.90;;;;;;4843948;29;20991;-77
2022/07/06 04:50:24;;;;;;;3.87;2.67;;;16.90;46.90;;;;;;4844451;29;20930;-77
2022/07/06 04:52:51;;;;;;;3.17;2.73;;;17.00;46.80;;;;;;4844348;29;20459;-77
2022/07/06 04:55:18;;;;;;;3.10;2.80;;;17.20;46.20;;;;;;4844498;29;20501;-77
2022/07/06 04:57:45;;;;;;;3.00;2.70;;;17.40;46.40;;;;;;4844898;29;20463;-77
2022/07/06 05:00:13;;;;;;;5.53;2.67;;;17.60;45.60;;;;;;4845447;29;20523;-77
2022/07/06 05:02:40;;;;;;;2.60;2.40;;;17.70;44.90;;;;;;4845092;29;20545;-80
2022/07/06 05:05:10;;;;;;;2.57;2.37;;;18.10;44.10;;;;;;4845645;29;20465;-77
2022/07/06 05:07:39;;;;;;;12.93;2.73;;;18.80;41.70;;;;;;4845471;29;20531;-77
2022/07/06 05:10:07;;;;;;;2.70;2.50;;;19.50;39.10;;;;;;4845661;29;20559;-77
2022/07/06 05:12:34;;;;;;;4.50;2.00;;;19.60;38.40;;;;;;4844707;29;20915;-77
2022/07/06 05:15:01;;;;;;;3.43;2.33;;;20.00;38.80;;;;;;4846559;29;20799;-77
2022/07/06 05:17:28;;;;;;;3.57;2.47;;;20.20;37.10;;;;;;4848932;29;20589;-77
2022/07/06 05:19:55;;;;;;;2.63;2.40;;;20.30;37.00;;;;;;4850682;29;20471;-77
2022/07/06 05:22:24;;;;;;;2.23;2.07;;;20.60;36.60;;;;;;4847833;29;20792;-77
2022/07/06 05:24:51;;;;;;;3.30;2.07;;;21.20;34.70;;;;;;4844023;29;20487;-77
2022/07/06 05:27:18;;;;;;;2.27;2.00;;;21.20;34.10;;;;;;4844828;29;20904;-76
2022/07/06 05:29:45;;;;;;;5.03;2.20;;;21.20;34.20;;;;;;4851965;29;20462;-76
2022/07/06 05:32:11;;;;;;;2.47;1.80;;;21.20;34.20;;;;;;4849794;29;20472;-75
2022/07/06 05:34:39;;;;;;;3.60;1.90;;;21.40;33.40;;;;;;4843032;29;20457;-77
2022/07/06 05:37:06;;;;;;;5.13;2.37;;;21.00;34.00;;;;;;4845083;29;20536;-77
2022/07/06 05:39:35;;;;;;;4.40;2.40;;;20.90;35.10;;;;;;4845580;29;20474;-77
2022/07/06 05:42:01;;;;;;;3.20;2.10;;;21.00;34.40;;;;;;4845562;29;20501;-76
2022/07/06 05:44:28;;;;;;;4.03;2.17;;;21.30;33.80;;;;;;4846666;29;20438;-77
2022/07/06 05:50:11;;;;;;;2.43;2.23;;;21.10;33.40;;;;;;4850622;29;20926;-77
2022/07/06 05:52:27;;;;;;;4.40;2.30;;;19.50;37.30;;;;;;4849315;29;20983;-78
2022/07/06 05:54:55;;;;;;;3.83;2.67;;;19.40;38.20;;;;;;4846145;29;20442;-78
2022/07/06 05:57:22;;;;;;;3.33;2.60;;;19.00;37.90;;;;;;4846264;29;20963;-78
2022/07/06 05:59:49;;;;;;;4.87;2.33;;;19.00;37.90;;;;;;4852258;29;20464;-77
2022/07/06 06:02:16;;;;;;;3.30;2.60;;;19.10;38.00;;;;;;4847367;29;20441;-78
2022/07/06 06:04:42;;;;;;;3.20;2.20;;;19.70;38.10;;;;;;4847303;29;20487;-77
2022/07/06 06:07:09;;;;;;;4.77;2.33;;;20.70;35.10;;;;;;4850294;29;20973;-77
2022/07/06 06:09:36;;;;;;;10.87;3.20;;;20.80;33.70;;;;;;4849283;29;20441;-78
2022/07/06 06:12:05;;;;;;;10.53;3.00;;;21.00;33.70;;;;;;4853317;29;20419;-80
2022/07/06 06:14:32;;;;;;;5.83;2.43;;;21.00;34.00;;;;;;4860011;29;20552;-79
2022/07/06 06:16:59;;;;;;;3.27;2.93;;;21.50;32.80;;;;;;4862667;29;20433;-78
2022/07/06 06:19:26;;;;;;;8.47;2.43;;;21.90;31.50;;;;;;4862009;29;20440;-77
2022/07/06 06:21:53;;;;;;;7.90;2.60;;;22.30;30.60;;;;;;4863922;29;20461;-76
2022/07/06 06:24:20;;;;;;;3.50;2.30;;;22.10;30.40;;;;;;4849730;29;20776;-75
2022/07/06 06:26:47;;;;;;;2.90;2.53;;;21.70;31.10;;;;;;4846248;29;20465;-76
2022/07/06 06:29:15;;;;;;;2.83;2.53;;;21.60;32.20;;;;;;4847800;29;20551;-76
2022/07/06 06:31:43;;;;;;;6.80;2.60;;;21.80;31.80;;;;;;4848656;29;20954;-77
2022/07/06 06:34:10;;;;;;;4.93;2.50;;;21.90;30.30;;;;;;4847440;29;20467;-76
2022/07/06 06:36:37;;;;;;;6.17;2.50;;;21.80;31.40;;;;;;4849143;29;20431;-76
2022/07/06 06:39:04;;;;;;;3.33;2.30;;;22.20;30.50;;;;;;4850000;29;20527;-76
2022/07/06 06:41:31;;;;;;;6.00;2.47;;;22.00;31.40;;;;;;4847779;29;20471;-75
2022/07/06 06:43:57;;;;;;;9.13;2.70;;;22.00;30.90;;;;;;4847695;29;20450;-77
2022/07/06 06:46:26;;;;;;;4.30;2.67;;;22.20;30.50;;;;;;4847631;29;20537;-78
2022/07/06 06:48:52;;;;;;;2.93;2.63;;;22.10;30.40;;;;;;4847533;29;20888;-76
2022/07/06 06:51:20;;;;;;;6.27;3.43;;;21.70;32.40;;;;;;4846779;29;20455;-77
2022/07/06 06:53:47;;;;;;;7.97;2.57;;;21.90;31.70;;;;;;4845165;29;20520;-78
2022/07/06 06:56:14;;;;;;;4.07;2.30;;;21.80;32.10;;;;;;4846693;29;20474;-77
2022/07/06 06:58:41;;;;;;;3.70;2.57;;;22.20;30.50;;;;;;4848626;29;20450;-77
2022/07/06 07:01:08;;;;;;;4.30;2.50;;;22.20;30.60;;;;;;4849617;29;20447;-77
2022/07/06 07:03:36;;;;;;;3.67;2.30;;;22.80;31.10;;;;;;4849789;29;20459;-78
2022/07/06 07:06:03;;;;;;;5.50;2.70;;;22.80;31.10;;;;;;4851141;29;20531;-76
2022/07/06 07:08:30;;;;;;;2.87;2.63;;;22.00;30.80;;;;;;4852744;29;20430;-77
2022/07/06 07:10:57;;;;;;;3.10;2.80;;;21.80;31.50;;;;;;4849735;29;20470;-77
2022/07/06 07:13:24;;;;;;;5.53;2.90;;;21.30;32.80;;;;;;4853591;29;20446;-77
2022/07/06 07:15:51;;;;;;;5.00;3.23;;;21.00;34.70;;;;;;4849096;29;20581;-77
2022/07/06 07:18:17;;;;;;;4.93;3.07;;;20.90;34.20;;;;;;4850125;29;20800;-77
2022/07/06 07:20:45;;;;;;;4.57;2.90;;;20.70;34.40;;;;;;4849855;29;20554;-78
2022/07/06 07:23:12;;;;;;;4.50;2.70;;;20.60;35.00;;;;;;4857268;29;20429;-76
2022/07/06 07:25:39;;;;;;;3.20;2.60;;;20.60;35.20;;;;;;4864861;29;20457;-77
2022/07/06 07:28:06;;;;;;;4.83;3.10;;;20.50;35.10;;;;;;4853719;29;20422;-76
2022/07/06 07:30:33;;;;;;;3.50;3.03;;;20.30;35.40;;;;;;4848008;29;20444;-76
2022/07/06 07:33:05;;;;;;;4.97;2.90;;;20.20;36.00;;;;;;4852734;29;20446;-77
2022/07/06 07:35:32;;;;;;;4.90;3.00;;;20.30;35.70;;;;;;4852180;29;20598;-78
2022/07/06 07:38:00;;;;;;;5.03;3.10;;;20.00;36.30;;;;;;4852107;29;20429;-78
2022/07/06 07:40:28;;;;;;;11.93;2.90;;;19.80;37.00;;;;;;4857869;29;20455;-75
2022/07/06 07:42:54;;;;;;;3.93;3.13;;;19.80;37.80;;;;;;4865348;29;20429;-76
2022/07/06 07:45:21;;;;;;;7.00;3.37;;;19.60;38.40;;;;;;4867001;29;20545;-76
2022/07/06 07:47:48;;;;;;;3.67;2.50;;;19.60;38.40;;;;;;4863049;29;20498;-78
2022/07/06 07:50:15;;;;;;;7.57;3.50;;;19.60;38.40;;;;;;4863648;29;20461;-78
2022/07/06 07:52:42;;;;;;;7.63;3.43;;;19.70;37.70;;;;;;4853377;29;20490;-76
2022/07/06 07:55:11;;;;;;;3.40;3.10;;;19.80;38.60;;;;;;4851751;29;20539;-78
2022/07/06 07:57:38;;;;;;;4.93;2.77;;;20.00;37.30;;;;;;4852948;29;20505;-78
2022/07/06 08:00:06;;;;;;;6.70;3.30;;;20.10;36.60;;;;;;4853071;29;20509;-78
2022/07/06 08:02:33;;;;;;;7.97;3.97;;;19.90;36.80;;;;;;4847135;29;20433;-76
2022/07/06 08:05:00;;;;;;;5.57;2.90;;;19.80;36.60;;;;;;4865345;23;20779;-81
2022/07/06 08:07:26;;;;;;;3.87;3.07;;;19.80;37.20;;;;;;4876280;29;20925;-81
2022/07/06 08:09:53;;;;;;;9.33;3.03;;;19.70;37.50;;;;;;4876524;29;20433;-80
2022/07/06 08:12:22;;;;;;;3.73;3.10;;;19.80;37.10;;;;;;4877176;29;20820;-81
2022/07/06 08:14:49;;;;;;;3.20;2.90;;;19.90;36.60;;;;;;4876006;29;20440;-82
2022/07/06 08:17:16;;;;;;;6.63;3.37;;;20.00;36.10;;;;;;4876606;29;20473;-82
2022/07/06 08:19:43;;;;;;;17.43;4.50;;;20.10;35.70;;;;;;4877084;29;20462;-81
2022/07/06 08:22:10;;;;;;;3.73;3.33;;;20.00;35.60;;;;;;4877820;29;20517;-81
2022/07/06 08:24:37;;;;;;;7.87;3.50;;;19.90;35.80;;;;;;4879599;29;20433;-82
2022/07/06 08:27:04;;;;;;;5.10;3.33;;;20.00;35.70;;;;;;4884354;29;20489;-81
2022/07/06 08:29:33;;;;;;;4.80;3.10;;;20.00;35.90;;;;;;4879071;29;20472;-80
2022/07/06 08:32:00;;;;;;;5.00;3.67;;;20.10;36.00;;;;;;4878510;29;20492;-81
2022/07/06 08:34:27;;;;;;;5.63;3.50;;;20.20;35.40;;;;;;4877854;29;20443;-80
2022/07/06 08:36:54;;;;;;;4.63;3.63;;;20.30;35.30;;;;;;4877744;29;20478;-81
2022/07/06 08:39:21;;;;;;;4.50;3.30;;;20.40;34.70;;;;;;4877379;29;20462;-80
2022/07/06 08:41:49;;;;;;;7.13;3.40;;;20.40;34.70;;;;;;4877369;29;20466;-80
2022/07/06 08:44:16;;;;;;;3.53;2.70;;;20.60;34.40;;;;;;4882640;29;20441;-81
2022/07/06 08:46:45;;;;;;;7.40;3.80;;;20.80;33.60;;;;;;4885299;29;20486;-82
2022/07/06 08:49:17;;;;;;;3.97;3.50;;;20.60;33.70;;;;;;4885550;29;20496;-82
2022/07/06 08:51:46;;;;;;;6.63;3.40;;;20.60;33.80;;;;;;4885363;29;20505;-83
2022/07/06 08:54:14;;;;;;;5.20;4.00;;;20.80;33.90;;;;;;4885468;29;20452;-81
2022/07/06 08:56:41;;;;;;;5.87;3.57;;;21.00;32.90;;;;;;4885036;29;20520;-83
2022/07/06 08:59:10;;;;;;;12.57;4.80;;;21.30;32.60;;;;;;4882790;29;20461;-82
2022/07/06 09:01:39;;;;;;;10.03;3.40;;;21.30;32.90;;;;;;4881625;29;20466;-80
2022/07/06 09:04:47;;;;;;;6.00;3.50;;;21.20;32.70;;;;;;4882203;29;20451;-83
2022/07/06 09:08:16;;;;;;;6.77;4.00;;;21.00;32.60;;;;;;5135704;23;20496;-81
2022/07/06 09:11:10;;;;;;;8.90;3.87;;;20.90;33.00;;;;;;4827172;29;21062;-82
2022/07/06 09:13:39;;;;;;;6.30;3.77;;;21.10;33.00;;;;;;4828020;29;20431;-84
2022/07/06 09:16:30;;;;;;;5.73;3.73;;;21.10;32.10;;;;;;4823760;29;20485;-81
2022/07/06 09:18:58;;;;;;;5.17;2.80;;;21.40;31.80;;;;;;4823999;29;20515;-80
2022/07/06 09:21:27;;;;;;;10.40;4.23;;;21.50;31.30;;;;;;4821244;29;20457;-80
2022/07/06 09:23:55;;;;;;;4.83;3.23;;;21.60;30.00;;;;;;4820320;29;20455;-81
2022/07/06 09:26:24;;;;;;;6.20;3.17;;;21.60;30.80;;;;;;4820385;29;20507;-81
2022/07/06 09:28:52;;;;;;;10.97;3.43;;;21.50;31.10;;;;;;4848095;29;20477;-81
2022/07/06 09:31:19;;;;;;;8.23;3.30;;;21.50;30.80;;;;;;4853315;29;20463;-80
2022/07/06 09:33:56;;;;;;;3.50;3.20;;;21.70;30.80;;;;;;4852605;29;20493;-81
2022/07/06 09:36:38;;;;;;;5.33;3.07;;;21.50;30.00;;;;;;4855274;29;20491;-81
2022/07/06 09:39:17;;;;;;;5.03;3.60;;;21.50;30.60;;;;;;4856243;29;20424;-81
2022/07/06 09:41:45;;;;;;;8.43;3.40;;;21.50;30.00;;;;;;4854934;29;20447;-80
2022/07/06 09:44:12;;;;;;;9.37;3.43;;;21.50;30.00;;;;;;4860804;29;20461;-81
2022/07/06 09:46:41;;;;;;;6.07;3.20;;;21.60;30.00;;;;;;4864978;29;20459;-82
2022/07/06 09:49:08;;;;;;;4.53;3.00;;;21.80;30.10;;;;;;4869475;29;20474;-83
2022/07/06 09:51:37;;;;;;;4.27;3.60;;;22.00;30.30;;;;;;4868064;29;20469;-81
2022/07/06 09:54:08;;;;;;;3.67;3.37;;;22.20;29.90;;;;;;4863437;29;20524;-82
2022/07/06 09:56:39;;;;;;;3.90;3.60;;;21.70;30.00;;;;;;4857589;29;20452;-80
2022/07/06 09:59:11;;;;;;;9.23;3.60;;;21.80;30.10;;;;;;4855074;29;20552;-80
2022/07/06 10:01:39;;;;;;;6.87;3.40;;;21.90;30.20;;;;;;4853993;29;20963;-81
2022/07/06 10:04:06;;;;;;;4.70;3.10;;;22.00;30.30;;;;;;4859800;29;20441;-80
2022/07/06 10:06:36;;;;;;;9.87;3.20;;;22.40;29.00;;;;;;4860927;29;20477;-81
2022/07/06 10:09:07;;;;;;;4.90;3.60;;;22.50;28.70;;;;;;4860961;29;20510;-81
2022/07/06 10:11:38;;;;;;;5.17;3.07;;;22.30;28.50;;;;;;4859965;29;20496;-81
2022/07/06 10:14:06;;;;;;;3.80;2.37;;;21.90;30.00;;;;;;4860570;29;20431;-81
2022/07/06 10:16:37;;;;;;;7.17;2.80;;;22.50;28.80;;;;;;4859738;29;20485;-79
2022/07/06 10:19:07;;;;;;;13.33;3.57;;;22.80;28.40;;;;;;4855540;29;20479;-82
2022/07/06 10:21:36;;;;;;;5.77;3.03;;;23.20;27.70;;;;;;4859447;29;20462;-83
2022/07/06 10:24:04;;;;;;;8.87;3.30;;;23.40;27.30;;;;;;4860688;29;20496;-81
2022/07/06 10:26:33;;;;;;;4.37;2.97;;;23.30;27.20;;;;;;4859501;29;20489;-79
2022/07/06 10:29:00;;;;;;;3.83;2.60;;;23.10;27.70;;;;;;4859097;29;20499;-81
2022/07/06 10:31:29;;;;;;;7.43;3.00;;;23.30;27.50;;;;;;4866318;29;20474;-82
2022/07/06 10:33:59;;;;;;;5.53;3.00;;;23.60;27.00;;;;;;4866035;29;20483;-81
2022/07/06 10:36:26;;;;;;;4.17;3.33;;;23.70;27.40;;;;;;4866538;29;20555;-81
2022/07/06 10:38:54;;;;;;;4.60;2.67;;;23.90;26.70;;;;;;4868021;29;20452;-80
2022/07/06 10:41:30;;;;;;;4.90;2.80;;;24.00;26.80;;;;;;4866043;29;20481;-81
2022/07/06 10:44:00;;;;;;;3.17;2.53;;;23.70;27.20;;;;;;4865853;29;20458;-81
2022/07/06 10:46:29;;;;;;;5.97;2.70;;;22.90;28.10;;;;;;4866216;29;20500;-80
2022/07/06 10:48:58;;;;;;;2.90;2.60;;;22.70;28.70;;;;;;4864163;29;20513;-81
2022/07/06 10:51:26;;;;;;;3.80;2.63;;;23.10;28.10;;;;;;4864762;29;20470;-81
2022/07/06 10:53:57;;;;;;;7.70;3.10;;;23.20;27.90;;;;;;4866855;29;20437;-80
2022/07/06 10:56:33;;;;;;;2.73;2.40;;;23.20;27.90;;;;;;4859636;29;20481;-81
2022/07/06 10:59:03;;;;;;;4.67;2.53;;;23.50;27.40;;;;;;4856491;29;20461;-81
2022/07/06 11:01:30;;;;;;;5.73;2.53;;;23.80;27.00;;;;;;4857339;29;20508;-80
2022/07/06 11:04:08;;;;;;;6.53;2.63;;;23.60;27.70;;;;;;4863763;29;20414;-80
2022/07/06 11:06:37;;;;;;;3.63;3.33;;;23.60;27.20;;;;;;4860731;29;20538;-80
2022/07/06 11:09:05;;;;;;;3.83;2.33;;;23.30;27.70;;;;;;4857037;29;20558;-81
2022/07/06 11:11:45;;;;;;;3.97;2.93;;;23.20;28.40;;;;;;4863081;29;20449;-82
2022/07/06 11:14:14;;;;;;;8.53;3.00;;;22.80;28.60;;;;;;4862173;29;20453;-80
2022/07/06 11:17:06;;;;;;;3.03;2.50;;;22.70;28.70;;;;;;4860508;29;20480;-80
2022/07/06 11:19:34;;;;;;;5.00;3.20;;;22.90;28.30;;;;;;4863905;29;20467;-80
2022/07/06 11:22:07;;;;;;;3.17;2.97;;;22.90;28.30;;;;;;4866070;29;20458;-82
2022/07/06 11:24:39;;;;;;;3.37;3.07;;;23.00;28.70;;;;;;4866587;29;20421;-82
2022/07/06 11:27:08;;;;;;;3.90;2.60;;;23.20;28.20;;;;;;4866466;29;20503;-81
2022/07/06 11:29:38;;;;;;;4.40;2.90;;;23.40;27.90;;;;;;4862762;29;20450;-81
2022/07/06 11:32:09;;;;;;;3.30;3.00;;;23.80;27.20;;;;;;4864960;29;20463;-80
2022/07/06 11:34:40;;;;;;;3.27;2.60;;;23.60;27.40;;;;;;4865095;29;20454;-81
2022/07/06 11:37:10;;;;;;;6.33;2.83;;;23.90;27.00;;;;;;4866821;29;20458;-79
2022/07/06 11:39:40;;;;;;;4.00;2.70;;;24.20;26.50;;;;;;4862793;29;20462;-81
2022/07/06 11:42:07;;;;;;;4.70;2.30;;;24.10;26.50;;;;;;4867568;29;20470;-80
2022/07/06 11:44:38;;;;;;;3.97;2.33;;;24.10;26.80;;;;;;4865077;29;20492;-81
2022/07/06 11:47:08;;;;;;;3.53;2.70;;;23.90;26.90;;;;;;4864243;29;20485;-77
2022/07/06 11:49:38;;;;;;;3.30;2.70;;;23.70;26.60;;;;;;4865670;29;20470;-80
2022/07/06 11:52:07;;;;;;;5.77;2.80;;;23.60;26.90;;;;;;4866107;29;20424;-81
2022/07/06 11:54:35;;;;;;;4.50;2.50;;;23.60;27.40;;;;;;4865517;29;20429;-80
2022/07/06 11:57:03;;;;;;;2.70;2.37;;;23.40;27.90;;;;;;4865142;29;20471;-80
2022/07/06 11:59:32;;;;;;;3.50;2.67;;;23.60;27.10;;;;;;4859768;29;20449;-80
2022/07/06 12:02:03;;;;;;;3.30;3.00;;;23.70;27.00;;;;;;4860412;29;20463;-81
2022/07/06 12:04:31;;;;;;;5.10;2.90;;;23.80;26.30;;;;;;4859354;29;20465;-81
2022/07/06 12:07:05;;;;;;;4.33;3.07;;;23.80;26.60;;;;;;4861154;29;20487;-81
2022/07/06 12:09:33;;;;;;;4.00;2.50;;;24.00;26.10;;;;;;4858575;29;20529;-80
2022/07/06 12:12:02;;;;;;;3.53;2.57;;;24.00;26.50;;;;;;4854793;29;20449;-79
2022/07/06 12:14:30;;;;;;;3.33;2.33;;;24.50;25.90;;;;;;4856917;29;20974;-80
2022/07/06 12:17:03;;;;;;;3.20;2.50;;;24.50;25.60;;;;;;4856342;29;20469;-81
2022/07/06 12:19:29;;;;;;;2.70;2.50;;;24.40;25.30;;;;;;4854910;29;20430;-81
2022/07/06 12:21:57;;;;;;;2.70;2.23;;;24.40;25.30;;;;;;4852075;29;20421;-79
2022/07/06 12:24:28;;;;;;;3.00;2.53;;;24.70;25.30;;;;;;4847074;29;20481;-81
2022/07/06 12:26:56;;;;;;;3.10;2.60;;;24.10;26.30;;;;;;4850331;29;20459;-79
2022/07/06 12:29:24;;;;;;;3.10;2.80;;;23.90;26.40;;;;;;4849668;29;20593;-80
2022/07/06 12:31:53;;;;;;;4.87;2.83;;;24.00;26.30;;;;;;4849033;29;20448;-80
2022/07/06 12:34:22;;;;;;;5.80;2.67;;;23.90;25.80;;;;;;4849659;29;20539;-80
2022/07/06 12:36:51;;;;;;;2.83;2.60;;;24.00;26.20;;;;;;4859885;29;20783;-80
2022/07/06 12:39:18;;;;;;;3.97;2.30;;;24.40;26.00;;;;;;4849824;29;20890;-80
2022/07/06 12:41:48;;;;;;;3.47;2.60;;;24.60;24.00;;;;;;4850049;29;20499;-79
2022/07/06 12:44:17;;;;;;;4.23;2.93;;;24.30;24.90;;;;;;4850163;29;20460;-80
2022/07/06 12:46:45;;;;;;;7.97;2.53;;;24.20;25.30;;;;;;4849994;29;20470;-80
2022/07/06 12:49:14;;;;;;;4.33;2.40;;;24.10;26.00;;;;;;4857821;29;20469;-78
2022/07/06 12:51:51;;;;;;;2.00;1.80;;;24.00;25.70;;;;;;4865165;29;20477;-81
2022/07/06 12:54:19;;;;;;;3.87;2.40;;;24.20;25.40;;;;;;4856274;29;20788;-80
2022/07/06 12:57:07;;;;;;;2.43;2.23;;;24.20;25.30;;;;;;4849279;29;20515;-81